Airfield :
LOGIN :

Register | Disclaimer

   EN    FR    IT 

 










Legend :    VFR   Marginal VFR   IFR   Intensive IFR   Very Intensive IFR
Visi :
Ceiling :
>= 8 km
>= 3000ft
5 to 8 km
1000 to 3000 ft
1500m to 5 km
500 to 1000 ft
800 to 1500m
200 to 500 ft
< 800m
< 200 ft
Symbols :   Thunderstorms  Fog  Heavy snow  Heavy precipitations  Wind > 20 kt
SIGMETs :     Misc.  Thunderstorms  Icing  Turbulence  Mountain Waves  Volcanic Ashes






- Airport Elevation : 37 ft


EGOW - Woodvale

CURRENT METAR :
  • 241250Z 28006KT 9999 FEW008 BKN015 08/08 Q1022 RMK WHT

EXPIRED METARs :
  • 241220Z 27006KT 8000 HZ FEW005 BKN015 08/08 Q1022 RMK WHT
  • 241150Z 26006KT 8000 HZ SCT005 BKN015 08/08 Q1022 RMK YLO1
  • 241120Z 26007KT 8000 HZ FEW005 BKN015 08/08 Q1023 RMK WHT
  • 241050Z 6000 HZ FEW005 BKN015 08/08 Q1023 RMK WHT
  • 241020Z 27006KT 3500 BR SCT005 BKN015 08/08 Q1023 RMK YLO1

TAF AMD TAF EGOW
Valid from the 24 at 12:00 until the 24 at 18:00 UTC


241154Z 2412/2418 27006KT 9999 FEW006 BKN016
TEMPO 2412/2418 6000 BR BKN012
PROB30
TEMPO 2412/2418 SCT005



MET'MAP, your aeronautical weather chart ! - Copyright ORBIFLY December 2007 - Disclaimer

ORBIFLY MET'MAP TEAM :

Programming & Development : Alexandra Zaïnal
Concept & original design : Baudouin d'Aumeries
Assistance for programming : Marc-Olivier Méhu
Technical & hardware support : Manuel Goepfert

Contact : metmap@orbifly.com




SOURCES & CREDITS :

   NOAA